sensor_id;sensor_type;location;lat;lon;timestamp;temperature;humidity
20442;DHT22;10380;52.102;20.614;2022-07-22T00:00:42;22.20;99.90
20442;DHT22;10380;52.102;20.614;2022-07-22T00:03:09;22.20;99.90
20442;DHT22;10380;52.102;20.614;2022-07-22T00:05:36;22.20;99.90
20442;DHT22;10380;52.102;20.614;2022-07-22T00:08:03;22.20;99.90
20442;DHT22;10380;52.102;20.614;2022-07-22T00:10:30;22.30;99.90
20442;DHT22;10380;52.102;20.614;2022-07-22T00:12:58;22.20;99.90
20442;DHT22;10380;52.102;20.614;2022-07-22T00:15:25;22.20;99.90
20442;DHT22;10380;52.102;20.614;2022-07-22T00:17:52;22.20;99.90
20442;DHT22;10380;52.102;20.614;2022-07-22T00:20:19;22.30;99.90
20442;DHT22;10380;52.102;20.614;2022-07-22T00:22:47;22.20;99.90
20442;DHT22;10380;52.102;20.614;2022-07-22T00:25:14;22.20;99.90
20442;DHT22;10380;52.102;20.614;2022-07-22T00:27:41;22.20;99.90
20442;DHT22;10380;52.102;20.614;2022-07-22T00:30:09;22.20;99.90
20442;DHT22;10380;52.102;20.614;2022-07-22T00:32:36;22.20;99.90
20442;DHT22;10380;52.102;20.614;2022-07-22T00:35:03;22.10;99.90
20442;DHT22;10380;52.102;20.614;2022-07-22T00:37:30;22.10;99.90
20442;DHT22;10380;52.102;20.614;2022-07-22T00:39:57;22.10;99.90
20442;DHT22;10380;52.102;20.614;2022-07-22T00:42:25;22.00;99.90
20442;DHT22;10380;52.102;20.614;2022-07-22T00:44:53;22.00;99.90
20442;DHT22;10380;52.102;20.614;2022-07-22T00:47:21;22.00;99.90
20442;DHT22;10380;52.102;20.614;2022-07-22T00:49:48;22.00;99.90
20442;DHT22;10380;52.102;20.614;2022-07-22T00:52:15;21.90;99.90
20442;DHT22;10380;52.102;20.614;2022-07-22T00:54:42;21.90;99.90
20442;DHT22;10380;52.102;20.614;2022-07-22T00:57:09;22.00;99.90
20442;DHT22;10380;52.102;20.614;2022-07-22T00:59:37;21.90;99.90
20442;DHT22;10380;52.102;20.614;2022-07-22T01:02:04;22.00;99.90
20442;DHT22;10380;52.102;20.614;2022-07-22T01:04:32;22.00;99.90
20442;DHT22;10380;52.102;20.614;2022-07-22T01:06:59;22.00;99.90
20442;DHT22;10380;52.102;20.614;2022-07-22T01:09:26;22.00;99.90
20442;DHT22;10380;52.102;20.614;2022-07-22T01:11:53;22.00;99.90
20442;DHT22;10380;52.102;20.614;2022-07-22T01:14:20;21.90;99.90
20442;DHT22;10380;52.102;20.614;2022-07-22T01:16:47;21.90;99.90
20442;DHT22;10380;52.102;20.614;2022-07-22T01:19:16;22.00;99.90
20442;DHT22;10380;52.102;20.614;2022-07-22T01:21:43;22.00;99.90
20442;DHT22;10380;52.102;20.614;2022-07-22T01:24:10;22.00;99.90
20442;DHT22;10380;52.102;20.614;2022-07-22T01:26:37;21.90;99.90
20442;DHT22;10380;52.102;20.614;2022-07-22T01:29:04;21.90;99.90
20442;DHT22;10380;52.102;20.614;2022-07-22T01:31:33;21.90;99.90
20442;DHT22;10380;52.102;20.614;2022-07-22T01:34:00;21.80;99.90
20442;DHT22;10380;52.102;20.614;2022-07-22T01:36:27;21.80;99.90
20442;DHT22;10380;52.102;20.614;2022-07-22T01:38:55;21.80;99.90
20442;DHT22;10380;52.102;20.614;2022-07-22T01:41:24;21.80;99.90
20442;DHT22;10380;52.102;20.614;2022-07-22T01:43:51;21.70;99.90
20442;DHT22;10380;52.102;20.614;2022-07-22T01:46:18;21.70;99.90
20442;DHT22;10380;52.102;20.614;2022-07-22T01:48:45;21.60;99.90
20442;DHT22;10380;52.102;20.614;2022-07-22T01:51:12;21.40;99.90
20442;DHT22;10380;52.102;20.614;2022-07-22T01:53:40;21.30;99.90
20442;DHT22;10380;52.102;20.614;2022-07-22T01:56:07;21.20;99.90
20442;DHT22;10380;52.102;20.614;2022-07-22T01:58:34;21.00;99.90
20442;DHT22;10380;52.102;20.614;2022-07-22T02:01:06;21.00;99.90
20442;DHT22;10380;52.102;20.614;2022-07-22T02:03:35;20.90;99.90
20442;DHT22;10380;52.102;20.614;2022-07-22T02:06:02;20.90;99.90
20442;DHT22;10380;52.102;20.614;2022-07-22T02:08:29;20.90;99.90
20442;DHT22;10380;52.102;20.614;2022-07-22T02:10:56;20.80;99.90
20442;DHT22;10380;52.102;20.614;2022-07-22T02:13:23;20.70;99.90
20442;DHT22;10380;52.102;20.614;2022-07-22T02:15:50;20.70;99.90
20442;DHT22;10380;52.102;20.614;2022-07-22T02:18:18;20.70;99.90
20442;DHT22;10380;52.102;20.614;2022-07-22T02:20:46;20.60;99.90
20442;DHT22;10380;52.102;20.614;2022-07-22T02:23:13;20.70;99.90
20442;DHT22;10380;52.102;20.614;2022-07-22T02:25:41;20.70;99.90
20442;DHT22;10380;52.102;20.614;2022-07-22T02:28:09;20.70;99.90
20442;DHT22;10380;52.102;20.614;2022-07-22T02:30:36;20.70;99.90
20442;DHT22;10380;52.102;20.614;2022-07-22T02:33:04;20.60;99.90
20442;DHT22;10380;52.102;20.614;2022-07-22T02:35:31;20.60;99.90
20442;DHT22;10380;52.102;20.614;2022-07-22T02:37:58;20.60;99.90
20442;DHT22;10380;52.102;20.614;2022-07-22T02:40:28;20.60;99.90
20442;DHT22;10380;52.102;20.614;2022-07-22T02:42:55;20.60;99.90
20442;DHT22;10380;52.102;20.614;2022-07-22T02:45:22;20.60;99.90
20442;DHT22;10380;52.102;20.614;2022-07-22T02:47:54;20.60;99.90
20442;DHT22;10380;52.102;20.614;2022-07-22T02:50:22;20.60;99.90
20442;DHT22;10380;52.102;20.614;2022-07-22T02:52:49;20.60;99.90
20442;DHT22;10380;52.102;20.614;2022-07-22T02:55:17;20.60;99.90
20442;DHT22;10380;52.102;20.614;2022-07-22T02:57:44;20.60;99.90
20442;DHT22;10380;52.102;20.614;2022-07-22T03:00:13;20.60;99.90
20442;DHT22;10380;52.102;20.614;2022-07-22T03:02:40;20.50;99.90
20442;DHT22;10380;52.102;20.614;2022-07-22T03:05:07;20.50;99.90
20442;DHT22;10380;52.102;20.614;2022-07-22T03:07:35;20.50;99.90
20442;DHT22;10380;52.102;20.614;2022-07-22T03:10:03;20.50;99.90
20442;DHT22;10380;52.102;20.614;2022-07-22T03:12:30;20.50;99.90
20442;DHT22;10380;52.102;20.614;2022-07-22T03:14:58;20.40;99.90
20442;DHT22;10380;52.102;20.614;2022-07-22T03:17:25;20.40;99.90
20442;DHT22;10380;52.102;20.614;2022-07-22T03:19:52;20.40;99.90
20442;DHT22;10380;52.102;20.614;2022-07-22T03:22:19;20.30;99.90
20442;DHT22;10380;52.102;20.614;2022-07-22T03:24:46;20.30;99.90
20442;DHT22;10380;52.102;20.614;2022-07-22T03:27:13;20.20;99.90
20442;DHT22;10380;52.102;20.614;2022-07-22T03:29:40;20.20;99.90
20442;DHT22;10380;52.102;20.614;2022-07-22T03:32:07;20.20;99.90
20442;DHT22;10380;52.102;20.614;2022-07-22T03:34:34;20.20;99.90
20442;DHT22;10380;52.102;20.614;2022-07-22T03:37:07;20.20;99.90
20442;DHT22;10380;52.102;20.614;2022-07-22T03:39:34;20.20;99.90
20442;DHT22;10380;52.102;20.614;2022-07-22T03:42:02;20.20;99.90
20442;DHT22;10380;52.102;20.614;2022-07-22T03:44:29;20.30;99.90
20442;DHT22;10380;52.102;20.614;2022-07-22T03:46:56;20.30;99.90
20442;DHT22;10380;52.102;20.614;2022-07-22T03:49:23;20.30;99.90
20442;DHT22;10380;52.102;20.614;2022-07-22T03:51:50;20.30;99.90
20442;DHT22;10380;52.102;20.614;2022-07-22T03:54:18;20.20;99.90
20442;DHT22;10380;52.102;20.614;2022-07-22T03:56:45;20.20;99.90
20442;DHT22;10380;52.102;20.614;2022-07-22T03:59:12;20.30;99.90
20442;DHT22;10380;52.102;20.614;2022-07-22T04:01:39;20.30;99.90
20442;DHT22;10380;52.102;20.614;2022-07-22T04:04:09;20.40;99.90
20442;DHT22;10380;52.102;20.614;2022-07-22T04:06:36;20.50;99.90
20442;DHT22;10380;52.102;20.614;2022-07-22T04:09:03;20.60;99.90
20442;DHT22;10380;52.102;20.614;2022-07-22T04:11:30;20.60;99.90
20442;DHT22;10380;52.102;20.614;2022-07-22T04:13:58;20.80;99.90
20442;DHT22;10380;52.102;20.614;2022-07-22T04:16:25;20.80;99.90
20442;DHT22;10380;52.102;20.614;2022-07-22T04:18:52;20.90;99.90
20442;DHT22;10380;52.102;20.614;2022-07-22T04:21:19;21.00;99.90
20442;DHT22;10380;52.102;20.614;2022-07-22T04:23:47;21.10;99.90
20442;DHT22;10380;52.102;20.614;2022-07-22T04:26:13;21.10;99.90
20442;DHT22;10380;52.102;20.614;2022-07-22T04:28:40;21.30;99.90
20442;DHT22;10380;52.102;20.614;2022-07-22T04:31:07;21.40;99.90
20442;DHT22;10380;52.102;20.614;2022-07-22T04:33:36;21.50;99.90
20442;DHT22;10380;52.102;20.614;2022-07-22T04:36:03;21.60;99.90
20442;DHT22;10380;52.102;20.614;2022-07-22T04:38:30;21.80;99.90
20442;DHT22;10380;52.102;20.614;2022-07-22T04:40:57;21.90;99.90
20442;DHT22;10380;52.102;20.614;2022-07-22T04:43:24;22.00;99.90
20442;DHT22;10380;52.102;20.614;2022-07-22T04:45:51;22.10;99.90
20442;DHT22;10380;52.102;20.614;2022-07-22T04:48:18;22.30;99.90
20442;DHT22;10380;52.102;20.614;2022-07-22T04:50:45;22.30;99.90
20442;DHT22;10380;52.102;20.614;2022-07-22T04:53:12;22.40;99.90
20442;DHT22;10380;52.102;20.614;2022-07-22T04:55:40;22.40;99.90
20442;DHT22;10380;52.102;20.614;2022-07-22T04:58:07;22.60;99.90
20442;DHT22;10380;52.102;20.614;2022-07-22T05:00:42;22.60;99.90
20442;DHT22;10380;52.102;20.614;2022-07-22T05:03:09;22.70;99.90
20442;DHT22;10380;52.102;20.614;2022-07-22T05:05:36;22.80;99.90
20442;DHT22;10380;52.102;20.614;2022-07-22T05:08:03;22.90;99.90
20442;DHT22;10380;52.102;20.614;2022-07-22T05:10:30;23.00;99.90
